sensor_id;sensor_type;location;lat;lon;timestamp;P1;durP1;ratioP1;P2;durP2;ratioP2
44842;SDS011;31884;52.538;13.820;2022-08-23T00:01:54;3.47;;;2.33;;
44842;SDS011;31884;52.538;13.820;2022-08-23T00:04:24;4.65;;;2.10;;
44842;SDS011;31884;52.538;13.820;2022-08-23T00:06:54;2.42;;;2.10;;
44842;SDS011;31884;52.538;13.820;2022-08-23T00:09:21;2.55;;;2.08;;
44842;SDS011;31884;52.538;13.820;2022-08-23T00:11:54;2.70;;;1.80;;
44842;SDS011;31884;52.538;13.820;2022-08-23T00:14:35;2.10;;;1.90;;
44842;SDS011;31884;52.538;13.820;2022-08-23T00:17:02;4.25;;;2.35;;
44842;SDS011;31884;52.538;13.820;2022-08-23T00:19:29;2.47;;;1.92;;
44842;SDS011;31884;52.538;13.820;2022-08-23T00:21:55;3.20;;;1.77;;
44842;SDS011;31884;52.538;13.820;2022-08-23T00:24:22;3.15;;;1.70;;
44842;SDS011;31884;52.538;13.820;2022-08-23T00:29:19;3.08;;;1.50;;
44842;SDS011;31884;52.538;13.820;2022-08-23T00:31:47;2.13;;;1.77;;
44842;SDS011;31884;52.538;13.820;2022-08-23T00:34:13;3.83;;;2.05;;
44842;SDS011;31884;52.538;13.820;2022-08-23T00:36:39;2.70;;;1.90;;
44842;SDS011;31884;52.538;13.820;2022-08-23T00:39:05;3.22;;;1.92;;
44842;SDS011;31884;52.538;13.820;2022-08-23T00:41:31;2.28;;;1.90;;
44842;SDS011;31884;52.538;13.820;2022-08-23T00:43:58;3.92;;;1.70;;
44842;SDS011;31884;52.538;13.820;2022-08-23T00:46:52;6.68;;;2.30;;
44842;SDS011;31884;52.538;13.820;2022-08-23T00:49:51;2.33;;;1.70;;
44842;SDS011;31884;52.538;13.820;2022-08-23T00:52:26;4.78;;;2.38;;
44842;SDS011;31884;52.538;13.820;2022-08-23T00:55:02;2.83;;;2.10;;
44842;SDS011;31884;52.538;13.820;2022-08-23T00:57:28;3.33;;;2.00;;
44842;SDS011;31884;52.538;13.820;2022-08-23T00:59:56;2.17;;;1.73;;
44842;SDS011;31884;52.538;13.820;2022-08-23T01:02:22;4.70;;;2.10;;
44842;SDS011;31884;52.538;13.820;2022-08-23T01:04:53;2.95;;;2.22;;
44842;SDS011;31884;52.538;13.820;2022-08-23T01:10:11;3.95;;;1.80;;
44842;SDS011;31884;52.538;13.820;2022-08-23T01:12:51;3.00;;;2.38;;
44842;SDS011;31884;52.538;13.820;2022-08-23T01:15:27;4.20;;;1.83;;
44842;SDS011;31884;52.538;13.820;2022-08-23T01:18:03;6.20;;;2.38;;
44842;SDS011;31884;52.538;13.820;2022-08-23T01:20:33;4.00;;;1.75;;
44842;SDS011;31884;52.538;13.820;2022-08-23T01:25:46;3.47;;;1.80;;
44842;SDS011;31884;52.538;13.820;2022-08-23T01:28:11;3.30;;;2.00;;
44842;SDS011;31884;52.538;13.820;2022-08-23T01:30:37;2.40;;;2.13;;
44842;SDS011;31884;52.538;13.820;2022-08-23T01:33:07;3.58;;;2.10;;
44842;SDS011;31884;52.538;13.820;2022-08-23T01:35:35;3.55;;;1.92;;
44842;SDS011;31884;52.538;13.820;2022-08-23T01:38:08;4.03;;;2.30;;
44842;SDS011;31884;52.538;13.820;2022-08-23T01:40:35;4.05;;;2.25;;
44842;SDS011;31884;52.538;13.820;2022-08-23T01:43:01;5.22;;;2.35;;
44842;SDS011;31884;52.538;13.820;2022-08-23T01:45:28;4.03;;;2.13;;
44842;SDS011;31884;52.538;13.820;2022-08-23T01:47:54;4.15;;;2.28;;
44842;SDS011;31884;52.538;13.820;2022-08-23T01:50:20;2.85;;;2.10;;
44842;SDS011;31884;52.538;13.820;2022-08-23T01:52:46;4.22;;;2.10;;
44842;SDS011;31884;52.538;13.820;2022-08-23T01:55:11;3.05;;;2.05;;
44842;SDS011;31884;52.538;13.820;2022-08-23T01:57:37;3.67;;;2.40;;
44842;SDS011;31884;52.538;13.820;2022-08-23T02:00:05;5.18;;;2.60;;
44842;SDS011;31884;52.538;13.820;2022-08-23T02:02:31;3.63;;;2.22;;
44842;SDS011;31884;52.538;13.820;2022-08-23T02:04:57;4.20;;;2.25;;
44842;SDS011;31884;52.538;13.820;2022-08-23T02:07:26;5.63;;;2.80;;
44842;SDS011;31884;52.538;13.820;2022-08-23T02:09:53;4.50;;;2.38;;
44842;SDS011;31884;52.538;13.820;2022-08-23T02:12:18;3.42;;;2.50;;
44842;SDS011;31884;52.538;13.820;2022-08-23T02:14:44;2.63;;;2.33;;
44842;SDS011;31884;52.538;13.820;2022-08-23T02:17:09;5.47;;;2.45;;
44842;SDS011;31884;52.538;13.820;2022-08-23T02:19:36;6.18;;;2.35;;
44842;SDS011;31884;52.538;13.820;2022-08-23T02:22:03;4.72;;;2.55;;
44842;SDS011;31884;52.538;13.820;2022-08-23T02:24:30;2.78;;;2.53;;
44842;SDS011;31884;52.538;13.820;2022-08-23T02:26:58;2.75;;;2.30;;
44842;SDS011;31884;52.538;13.820;2022-08-23T02:29:26;3.80;;;2.58;;
44842;SDS011;31884;52.538;13.820;2022-08-23T02:31:56;6.45;;;2.92;;
44842;SDS011;31884;52.538;13.820;2022-08-23T02:34:23;5.60;;;3.00;;
44842;SDS011;31884;52.538;13.820;2022-08-23T02:36:49;5.22;;;3.00;;
44842;SDS011;31884;52.538;13.820;2022-08-23T02:39:15;5.45;;;3.25;;
44842;SDS011;31884;52.538;13.820;2022-08-23T02:41:41;7.00;;;3.25;;
44842;SDS011;31884;52.538;13.820;2022-08-23T02:44:07;5.07;;;3.00;;
44842;SDS011;31884;52.538;13.820;2022-08-23T02:46:34;4.43;;;2.83;;
44842;SDS011;31884;52.538;13.820;2022-08-23T02:48:59;3.75;;;2.70;;
44842;SDS011;31884;52.538;13.820;2022-08-23T02:51:25;5.07;;;2.85;;
44842;SDS011;31884;52.538;13.820;2022-08-23T02:53:51;2.90;;;2.30;;
44842;SDS011;31884;52.538;13.820;2022-08-23T02:56:16;2.83;;;2.10;;
44842;SDS011;31884;52.538;13.820;2022-08-23T02:58:42;3.08;;;2.28;;
44842;SDS011;31884;52.538;13.820;2022-08-23T03:01:16;2.97;;;2.20;;
44842;SDS011;31884;52.538;13.820;2022-08-23T03:03:42;4.13;;;1.95;;
44842;SDS011;31884;52.538;13.820;2022-08-23T03:06:09;7.60;;;2.67;;
44842;SDS011;31884;52.538;13.820;2022-08-23T03:08:35;4.45;;;2.17;;
44842;SDS011;31884;52.538;13.820;2022-08-23T03:11:01;3.53;;;2.28;;
44842;SDS011;31884;52.538;13.820;2022-08-23T03:13:26;2.28;;;2.08;;
44842;SDS011;31884;52.538;13.820;2022-08-23T03:15:52;3.08;;;2.20;;
44842;SDS011;31884;52.538;13.820;2022-08-23T03:18:18;4.50;;;2.65;;
44842;SDS011;31884;52.538;13.820;2022-08-23T03:20:44;4.70;;;2.60;;
44842;SDS011;31884;52.538;13.820;2022-08-23T03:23:10;3.38;;;2.10;;
44842;SDS011;31884;52.538;13.820;2022-08-23T03:25:36;4.03;;;2.50;;
44842;SDS011;31884;52.538;13.820;2022-08-23T03:28:05;5.28;;;2.60;;
44842;SDS011;31884;52.538;13.820;2022-08-23T03:30:31;3.47;;;2.30;;
44842;SDS011;31884;52.538;13.820;2022-08-23T03:32:57;2.30;;;2.10;;
44842;SDS011;31884;52.538;13.820;2022-08-23T03:35:24;4.75;;;2.50;;
44842;SDS011;31884;52.538;13.820;2022-08-23T03:37:49;4.95;;;2.50;;
44842;SDS011;31884;52.538;13.820;2022-08-23T03:40:17;4.15;;;2.60;;
44842;SDS011;31884;52.538;13.820;2022-08-23T03:42:43;4.25;;;2.75;;
44842;SDS011;31884;52.538;13.820;2022-08-23T03:45:08;3.42;;;2.33;;
44842;SDS011;31884;52.538;13.820;2022-08-23T03:47:34;4.18;;;2.53;;
44842;SDS011;31884;52.538;13.820;2022-08-23T03:50:00;7.82;;;2.72;;
44842;SDS011;31884;52.538;13.820;2022-08-23T03:52:25;3.90;;;2.92;;
44842;SDS011;31884;52.538;13.820;2022-08-23T03:54:51;5.40;;;2.58;;
44842;SDS011;31884;52.538;13.820;2022-08-23T03:57:16;4.05;;;2.28;;
44842;SDS011;31884;52.538;13.820;2022-08-23T03:59:42;5.25;;;2.47;;
44842;SDS011;31884;52.538;13.820;2022-08-23T04:02:07;2.65;;;2.45;;
44842;SDS011;31884;52.538;13.820;2022-08-23T04:04:33;5.03;;;2.90;;
44842;SDS011;31884;52.538;13.820;2022-08-23T04:06:59;5.40;;;2.70;;
44842;SDS011;31884;52.538;13.820;2022-08-23T04:09:25;3.42;;;2.80;;
44842;SDS011;31884;52.538;13.820;2022-08-23T04:11:50;5.82;;;2.92;;
44842;SDS011;31884;52.538;13.820;2022-08-23T04:14:17;5.78;;;2.88;;
44842;SDS011;31884;52.538;13.820;2022-08-23T04:16:43;5.07;;;3.35;;
44842;SDS011;31884;52.538;13.820;2022-08-23T04:19:09;7.07;;;3.63;;
44842;SDS011;31884;52.538;13.820;2022-08-23T04:21:37;4.57;;;2.80;;
44842;SDS011;31884;52.538;13.820;2022-08-23T04:24:05;7.20;;;3.22;;
44842;SDS011;31884;52.538;13.820;2022-08-23T04:26:31;7.05;;;3.10;;
44842;SDS011;31884;52.538;13.820;2022-08-23T04:28:57;6.85;;;3.85;;
44842;SDS011;31884;52.538;13.820;2022-08-23T04:31:23;3.75;;;2.85;;
44842;SDS011;31884;52.538;13.820;2022-08-23T04:33:50;5.32;;;3.28;;
44842;SDS011;31884;52.538;13.820;2022-08-23T04:36:16;4.95;;;3.08;;
44842;SDS011;31884;52.538;13.820;2022-08-23T04:38:42;5.43;;;3.35;;
44842;SDS011;31884;52.538;13.820;2022-08-23T04:41:07;5.07;;;3.00;;
44842;SDS011;31884;52.538;13.820;2022-08-23T04:43:52;5.45;;;3.15;;
44842;SDS011;31884;52.538;13.820;2022-08-23T04:46:18;3.17;;;2.63;;
44842;SDS011;31884;52.538;13.820;2022-08-23T04:48:44;5.60;;;3.20;;
44842;SDS011;31884;52.538;13.820;2022-08-23T04:51:11;3.85;;;2.90;;
44842;SDS011;31884;52.538;13.820;2022-08-23T04:53:37;4.30;;;3.45;;
44842;SDS011;31884;52.538;13.820;2022-08-23T04:56:03;5.68;;;3.10;;
44842;SDS011;31884;52.538;13.820;2022-08-23T04:58:30;4.43;;;3.13;;
44842;SDS011;31884;52.538;13.820;2022-08-23T05:00:57;5.68;;;2.85;;
44842;SDS011;31884;52.538;13.820;2022-08-23T05:03:24;4.25;;;3.15;;
44842;SDS011;31884;52.538;13.820;2022-08-23T05:05:51;4.93;;;3.13;;
44842;SDS011;31884;52.538;13.820;2022-08-23T05:08:17;7.97;;;3.72;;
44842;SDS011;31884;52.538;13.820;2022-08-23T05:10:43;6.10;;;3.28;;
44842;SDS011;31884;52.538;13.820;2022-08-23T05:13:09;5.45;;;3.50;;
44842;SDS011;31884;52.538;13.820;2022-08-23T05:15:35;5.75;;;3.47;;
44842;SDS011;31884;52.538;13.820;2022-08-23T05:18:00;6.50;;;3.45;;
44842;SDS011;31884;52.538;13.820;2022-08-23T05:20:25;6.57;;;3.80;;
44842;SDS011;31884;52.538;13.820;2022-08-23T05:22:51;6.00;;;3.70;;
44842;SDS011;31884;52.538;13.820;2022-08-23T05:25:18;8.15;;;3.67;;
44842;SDS011;31884;52.538;13.820;2022-08-23T05:27:44;5.47;;;3.28;;
44842;SDS011;31884;52.538;13.820;2022-08-23T05:30:09;7.30;;;2.97;;
44842;SDS011;31884;52.538;13.820;2022-08-23T05:32:36;5.85;;;2.97;;
44842;SDS011;31884;52.538;13.820;2022-08-23T05:35:02;6.50;;;3.45;;
44842;SDS011;31884;52.538;13.820;2022-08-23T05:37:28;5.80;;;3.30;;
44842;SDS011;31884;52.538;13.820;2022-08-23T05:39:53;4.70;;;3.53;;
44842;SDS011;31884;52.538;13.820;2022-08-23T05:42:19;6.10;;;3.65;;
44842;SDS011;31884;52.538;13.820;2022-08-23T05:44:44;6.43;;;3.33;;
44842;SDS011;31884;52.538;13.820;2022-08-23T05:47:11;6.40;;;3.38;;
44842;SDS011;31884;52.538;13.820;2022-08-23T05:49:38;5.13;;;3.35;;
44842;SDS011;31884;52.538;13.820;2022-08-23T05:52:09;6.50;;;3.55;;
44842;SDS011;31884;52.538;13.820;2022-08-23T05:54:36;5.85;;;2.72;;
44842;SDS011;31884;52.538;13.820;2022-08-23T05:57:02;7.60;;;3.17;;
44842;SDS011;31884;52.538;13.820;2022-08-23T05:59:28;3.45;;;2.65;;
44842;SDS011;31884;52.538;13.820;2022-08-23T06:01:53;3.53;;;2.88;;
44842;SDS011;31884;52.538;13.820;2022-08-23T06:04:20;5.82;;;2.97;;
44842;SDS011;31884;52.538;13.820;2022-08-23T06:06:46;5.22;;;2.88;;
44842;SDS011;31884;52.538;13.820;2022-08-23T06:09:13;5.82;;;2.80;;
44842;SDS011;31884;52.538;13.820;2022-08-23T06:11:41;2.92;;;2.00;;
44842;SDS011;31884;52.538;13.820;2022-08-23T06:14:08;3.97;;;2.35;;
44842;SDS011;31884;52.538;13.820;2022-08-23T06:16:35;5.90;;;2.35;;
44842;SDS011;31884;52.538;13.820;2022-08-23T06:19:03;4.15;;;2.03;;
44842;SDS011;31884;52.538;13.820;2022-08-23T06:21:30;4.05;;;2.53;;
44842;SDS011;31884;52.538;13.820;2022-08-23T06:23:56;6.95;;;2.65;;
44842;SDS011;31884;52.538;13.820;2022-08-23T06:28:51;3.28;;;2.33;;
44842;SDS011;31884;52.538;13.820;2022-08-23T06:31:18;3.75;;;2.65;;
44842;SDS011;31884;52.538;13.820;2022-08-23T06:34:09;5.78;;;2.55;;
44842;SDS011;31884;52.538;13.820;2022-08-23T06:36:37;4.28;;;2.20;;
44842;SDS011;31884;52.538;13.820;2022-08-23T06:39:06;3.40;;;2.55;;
44842;SDS011;31884;52.538;13.820;2022-08-23T06:41:33;3.45;;;2.20;;
44842;SDS011;31884;52.538;13.820;2022-08-23T06:43:59;3.97;;;1.90;;
44842;SDS011;31884;52.538;13.820;2022-08-23T06:46:25;6.82;;;2.25;;
44842;SDS011;31884;52.538;13.820;2022-08-23T06:48:53;3.10;;;1.98;;
44842;SDS011;31884;52.538;13.820;2022-08-23T06:51:23;5.25;;;1.90;;
44842;SDS011;31884;52.538;13.820;2022-08-23T06:53:52;5.03;;;2.40;;
44842;SDS011;31884;52.538;13.820;2022-08-23T06:56:20;3.53;;;2.20;;
44842;SDS011;31884;52.538;13.820;2022-08-23T06:58:50;4.20;;;2.08;;
44842;SDS011;31884;52.538;13.820;2022-08-23T07:01:21;3.03;;;1.98;;
44842;SDS011;31884;52.538;13.820;2022-08-23T07:03:59;3.75;;;1.73;;
44842;SDS011;31884;52.538;13.820;2022-08-23T07:06:26;3.10;;;1.83;;
44842;SDS011;31884;52.538;13.820;2022-08-23T07:08:53;3.00;;;1.88;;
44842;SDS011;31884;52.538;13.820;2022-08-23T07:11:19;4.93;;;2.13;;
44842;SDS011;31884;52.538;13.820;2022-08-23T07:13:46;6.47;;;2.40;;
44842;SDS011;31884;52.538;13.820;2022-08-23T07:16:12;3.75;;;2.00;;
44842;SDS011;31884;52.538;13.820;2022-08-23T07:18:39;3.35;;;2.03;;
44842;SDS011;31884;52.538;13.820;2022-08-23T07:21:05;3.03;;;1.98;;
44842;SDS011;31884;52.538;13.820;2022-08-23T07:23:31;3.15;;;1.75;;
44842;SDS011;31884;52.538;13.820;2022-08-23T07:26:02;2.70;;;2.08;;
44842;SDS011;31884;52.538;13.820;2022-08-23T07:28:32;4.82;;;2.30;;
44842;SDS011;31884;52.538;13.820;2022-08-23T07:31:08;7.57;;;2.53;;
44842;SDS011;31884;52.538;13.820;2022-08-23T07:33:40;3.85;;;2.17;;
44842;SDS011;31884;52.538;13.820;2022-08-23T07:36:07;5.00;;;2.15;;
44842;SDS011;31884;52.538;13.820;2022-08-23T07:38:33;4.22;;;1.80;;
44842;SDS011;31884;52.538;13.820;2022-08-23T07:41:03;4.35;;;2.28;;
44842;SDS011;31884;52.538;13.820;2022-08-23T07:43:30;5.78;;;2.38;;
44842;SDS011;31884;52.538;13.820;2022-08-23T07:45:56;3.53;;;2.05;;
44842;SDS011;31884;52.538;13.820;2022-08-23T07:48:22;2.83;;;1.70;;
44842;SDS011;31884;52.538;13.820;2022-08-23T07:50:55;3.22;;;1.95;;
44842;SDS011;31884;52.538;13.820;2022-08-23T07:53:23;4.15;;;1.92;;
44842;SDS011;31884;52.538;13.820;2022-08-23T07:55:49;2.80;;;1.80;;
44842;SDS011;31884;52.538;13.820;2022-08-23T07:58:16;3.15;;;2.20;;
44842;SDS011;31884;52.538;13.820;2022-08-23T08:00:41;2.50;;;1.73;;
44842;SDS011;31884;52.538;13.820;2022-08-23T08:03:07;4.75;;;1.90;;
44842;SDS011;31884;52.538;13.820;2022-08-23T08:05:34;3.85;;;1.95;;
44842;SDS011;31884;52.538;13.820;2022-08-23T08:08:00;4.13;;;2.00;;
44842;SDS011;31884;52.538;13.820;2022-08-23T08:10:27;5.18;;;1.60;;
44842;SDS011;31884;52.538;13.820;2022-08-23T08:12:52;4.65;;;2.25;;
44842;SDS011;31884;52.538;13.820;2022-08-23T08:15:18;2.60;;;1.80;;
44842;SDS011;31884;52.538;13.820;2022-08-23T08:17:47;3.53;;;1.77;;
44842;SDS011;31884;52.538;13.820;2022-08-23T08:20:14;2.92;;;1.80;;
44842;SDS011;31884;52.538;13.820;2022-08-23T08:22:40;2.30;;;1.77;;
44842;SDS011;31884;52.538;13.820;2022-08-23T08:25:06;4.90;;;1.90;;
44842;SDS011;31884;52.538;13.820;2022-08-23T08:27:32;2.83;;;1.70;;
44842;SDS011;31884;52.538;13.820;2022-08-23T08:29:58;3.58;;;1.80;;
44842;SDS011;31884;52.538;13.820;2022-08-23T08:32:24;3.40;;;2.03;;
44842;SDS011;31884;52.538;13.820;2022-08-23T08:34:49;2.58;;;1.80;;
44842;SDS011;31884;52.538;13.820;2022-08-23T08:37:14;2.90;;;1.63;;
44842;SDS011;31884;52.538;13.820;2022-08-23T08:39:40;3.85;;;2.08;;
44842;SDS011;31884;52.538;13.820;2022-08-23T08:45:42;3.08;;;1.60;;
44842;SDS011;31884;52.538;13.820;2022-08-23T08:47:50;2.58;;;1.77;;
44842;SDS011;31884;52.538;13.820;2022-08-23T08:50:25;4.18;;;1.50;;
44842;SDS011;31884;52.538;13.820;2022-08-23T08:56:43;2.92;;;1.85;;
44842;SDS011;31884;52.538;13.820;2022-08-23T08:58:50;2.78;;;1.33;;
44842;SDS011;31884;52.538;13.820;2022-08-23T09:01:18;3.95;;;1.77;;
44842;SDS011;31884;52.538;13.820;2022-08-23T09:03:45;1.50;;;1.30;;
44842;SDS011;31884;52.538;13.820;2022-08-23T09:06:18;3.38;;;1.52;;
44842;SDS011;31884;52.538;13.820;2022-08-23T09:09:03;1.77;;;1.10;;
44842;SDS011;31884;52.538;13.820;2022-08-23T09:12:09;5.35;;;2.15;;
44842;SDS011;31884;52.538;13.820;2022-08-23T09:15:01;3.35;;;1.92;;
44842;SDS011;31884;52.538;13.820;2022-08-23T09:17:57;2.60;;;1.55;;
44842;SDS011;31884;52.538;13.820;2022-08-23T09:20:31;4.28;;;1.85;;
44842;SDS011;31884;52.538;13.820;2022-08-23T09:23:10;2.72;;;1.70;;
44842;SDS011;31884;52.538;13.820;2022-08-23T09:25:55;4.18;;;1.67;;
44842;SDS011;31884;52.538;13.820;2022-08-23T09:28:24;1.38;;;1.20;;
44842;SDS011;31884;52.538;13.820;2022-08-23T09:30:53;6.85;;;2.08;;
44842;SDS011;31884;52.538;13.820;2022-08-23T09:33:21;2.58;;;1.90;;
44842;SDS011;31884;52.538;13.820;2022-08-23T09:38:51;3.72;;;2.10;;
44842;SDS011;31884;52.538;13.820;2022-08-23T09:41:26;6.00;;;2.20;;
44842;SDS011;31884;52.538;13.820;2022-08-23T09:44:06;6.07;;;2.40;;
44842;SDS011;31884;52.538;13.820;2022-08-23T09:46:37;3.27;;;2.37;;
44842;SDS011;31884;52.538;13.820;2022-08-23T09:49:23;4.80;;;2.40;;
44842;SDS011;31884;52.538;13.820;2022-08-23T09:51:51;2.70;;;1.98;;
44842;SDS011;31884;52.538;13.820;2022-08-23T09:54:29;5.18;;;2.40;;
44842;SDS011;31884;52.538;13.820;2022-08-23T09:57:02;3.13;;;2.15;;
44842;SDS011;31884;52.538;13.820;2022-08-23T09:59:36;3.63;;;2.00;;
44842;SDS011;31884;52.538;13.820;2022-08-23T10:02:12;2.30;;;2.10;;
44842;SDS011;31884;52.538;13.820;2022-08-23T10:07:32;3.83;;;2.00;;
44842;SDS011;31884;52.538;13.820;2022-08-23T10:10:14;3.00;;;1.88;;
44842;SDS011;31884;52.538;13.820;2022-08-23T10:12:40;4.38;;;2.30;;
44842;SDS011;31884;52.538;13.820;2022-08-23T10:15:05;2.72;;;2.15;;
44842;SDS011;31884;52.538;13.820;2022-08-23T10:17:42;2.92;;;2.28;;
44842;SDS011;31884;52.538;13.820;2022-08-23T10:20:28;5.75;;;2.20;;
44842;SDS011;31884;52.538;13.820;2022-08-23T10:23:05;5.40;;;2.47;;
44842;SDS011;31884;52.538;13.820;2022-08-23T10:25:42;5.25;;;2.35;;
44842;SDS011;31884;52.538;13.820;2022-08-23T10:40:06;3.70;;;2.03;;
44842;SDS011;31884;52.538;13.820;2022-08-23T10:50:52;2.75;;;2.28;;
44842;SDS011;31884;52.538;13.820;2022-08-23T10:53:19;4.18;;;2.05;;
44842;SDS011;31884;52.538;13.820;2022-08-23T10:55:54;2.88;;;2.25;;
44842;SDS011;31884;52.538;13.820;2022-08-23T10:58:29;2.90;;;2.10;;
44842;SDS011;31884;52.538;13.820;2022-08-23T11:01:05;3.13;;;2.20;;
44842;SDS011;31884;52.538;13.820;2022-08-23T11:03:34;3.33;;;2.10;;
44842;SDS011;31884;52.538;13.820;2022-08-23T11:06:23;2.95;;;2.55;;
44842;SDS011;31884;52.538;13.820;2022-08-23T11:11:46;5.10;;;2.10;;
44842;SDS011;31884;52.538;13.820;2022-08-23T11:17:24;3.90;;;2.40;;
44842;SDS011;31884;52.538;13.820;2022-08-23T11:22:24;3.97;;;2.50;;
44842;SDS011;31884;52.538;13.820;2022-08-23T11:24:53;3.83;;;2.60;;
44842;SDS011;31884;52.538;13.820;2022-08-23T11:27:28;5.95;;;2.80;;
44842;SDS011;31884;52.538;13.820;2022-08-23T11:29:54;3.10;;;2.33;;
44842;SDS011;31884;52.538;13.820;2022-08-23T11:32:26;5.22;;;2.33;;
44842;SDS011;31884;52.538;13.820;2022-08-23T11:40:37;4.15;;;2.40;;
44842;SDS011;31884;52.538;13.820;2022-08-23T11:43:23;2.88;;;2.25;;
44842;SDS011;31884;52.538;13.820;2022-08-23T11:46:12;2.83;;;1.98;;
44842;SDS011;31884;52.538;13.820;2022-08-23T11:51:48;1.67;;;1.48;;
44842;SDS011;31884;52.538;13.820;2022-08-23T11:54:21;3.88;;;2.00;;
44842;SDS011;31884;52.538;13.820;2022-08-23T11:56:58;7.35;;;2.20;;
44842;SDS011;31884;52.538;13.820;2022-08-23T12:00:00;3.47;;;1.85;;
44842;SDS011;31884;52.538;13.820;2022-08-23T12:06:03;6.30;;;2.20;;
44842;SDS011;31884;52.538;13.820;2022-08-23T12:08:28;3.95;;;2.13;;
44842;SDS011;31884;52.538;13.820;2022-08-23T12:12:04;2.35;;;1.88;;
44842;SDS011;31884;52.538;13.820;2022-08-23T12:14:35;3.45;;;2.45;;
44842;SDS011;31884;52.538;13.820;2022-08-23T12:22:20;3.80;;;2.35;;
44842;SDS011;31884;52.538;13.820;2022-08-23T12:24:53;2.88;;;1.88;;
44842;SDS011;31884;52.538;13.820;2022-08-23T12:27:27;3.63;;;2.25;;
44842;SDS011;31884;52.538;13.820;2022-08-23T12:30:03;3.35;;;2.00;;
44842;SDS011;31884;52.538;13.820;2022-08-23T12:32:38;3.60;;;2.05;;
44842;SDS011;31884;52.538;13.820;2022-08-23T12:35:35;3.15;;;1.90;;
44842;SDS011;31884;52.538;13.820;2022-08-23T12:38:11;6.18;;;2.17;;
44842;SDS011;31884;52.538;13.820;2022-08-23T12:40:59;6.88;;;2.10;;
44842;SDS011;31884;52.538;13.820;2022-08-23T12:43:41;2.50;;;1.98;;
44842;SDS011;31884;52.538;13.820;2022-08-23T12:46:44;4.47;;;2.30;;
44842;SDS011;31884;52.538;13.820;2022-08-23T12:49:31;3.50;;;2.03;;
44842;SDS011;31884;52.538;13.820;2022-08-23T12:52:00;5.32;;;2.33;;
44842;SDS011;31884;52.538;13.820;2022-08-23T12:54:39;4.30;;;2.00;;
44842;SDS011;31884;52.538;13.820;2022-08-23T12:57:09;2.92;;;1.83;;
44842;SDS011;31884;52.538;13.820;2022-08-23T13:02:21;3.95;;;1.98;;
44842;SDS011;31884;52.538;13.820;2022-08-23T13:04:51;2.67;;;1.73;;
44842;SDS011;31884;52.538;13.820;2022-08-23T13:07:22;3.20;;;1.75;;
44842;SDS011;31884;52.538;13.820;2022-08-23T13:09:50;4.88;;;2.22;;
44842;SDS011;31884;52.538;13.820;2022-08-23T13:12:16;4.50;;;2.53;;
44842;SDS011;31884;52.538;13.820;2022-08-23T13:14:44;3.05;;;2.28;;
44842;SDS011;31884;52.538;13.820;2022-08-23T13:19:49;4.32;;;2.58;;
44842;SDS011;31884;52.538;13.820;2022-08-23T13:24:44;5.28;;;2.30;;
44842;SDS011;31884;52.538;13.820;2022-08-23T13:27:26;2.53;;;2.17;;
44842;SDS011;31884;52.538;13.820;2022-08-23T13:30:00;3.42;;;2.10;;
44842;SDS011;31884;52.538;13.820;2022-08-23T13:32:47;2.97;;;2.17;;
44842;SDS011;31884;52.538;13.820;2022-08-23T13:35:31;6.60;;;3.03;;
44842;SDS011;31884;52.538;13.820;2022-08-23T13:41:05;3.42;;;2.50;;
44842;SDS011;31884;52.538;13.820;2022-08-23T13:46:10;4.55;;;2.08;;
44842;SDS011;31884;52.538;13.820;2022-08-23T13:51:19;1.98;;;1.77;;
44842;SDS011;31884;52.538;13.820;2022-08-23T13:53:51;3.40;;;2.28;;
44842;SDS011;31884;52.538;13.820;2022-08-23T13:56:18;5.13;;;2.45;;
44842;SDS011;31884;52.538;13.820;2022-08-23T13:58:51;4.32;;;2.90;;
44842;SDS011;31884;52.538;13.820;2022-08-23T14:01:22;4.70;;;2.33;;
44842;SDS011;31884;52.538;13.820;2022-08-23T14:03:48;3.28;;;2.28;;
44842;SDS011;31884;52.538;13.820;2022-08-23T14:06:14;3.13;;;2.13;;
44842;SDS011;31884;52.538;13.820;2022-08-23T14:08:39;5.63;;;2.10;;
44842;SDS011;31884;52.538;13.820;2022-08-23T14:11:05;5.55;;;2.60;;
44842;SDS011;31884;52.538;13.820;2022-08-23T14:13:31;7.10;;;3.05;;
44842;SDS011;31884;52.538;13.820;2022-08-23T14:16:01;7.50;;;2.85;;
44842;SDS011;31884;52.538;13.820;2022-08-23T14:18:29;5.15;;;2.63;;
44842;SDS011;31884;52.538;13.820;2022-08-23T14:20:54;4.88;;;2.45;;
44842;SDS011;31884;52.538;13.820;2022-08-23T14:23:20;4.07;;;2.67;;
44842;SDS011;31884;52.538;13.820;2022-08-23T14:25:47;4.40;;;2.53;;
44842;SDS011;31884;52.538;13.820;2022-08-23T14:28:14;4.80;;;2.72;;
44842;SDS011;31884;52.538;13.820;2022-08-23T14:30:40;3.45;;;2.38;;
44842;SDS011;31884;52.538;13.820;2022-08-23T14:33:06;5.47;;;3.25;;
44842;SDS011;31884;52.538;13.820;2022-08-23T14:35:31;5.43;;;2.95;;
44842;SDS011;31884;52.538;13.820;2022-08-23T14:37:57;4.55;;;2.63;;
44842;SDS011;31884;52.538;13.820;2022-08-23T14:40:22;7.32;;;3.22;;
44842;SDS011;31884;52.538;13.820;2022-08-23T14:42:48;6.55;;;3.05;;
44842;SDS011;31884;52.538;13.820;2022-08-23T14:45:15;2.80;;;2.40;;
44842;SDS011;31884;52.538;13.820;2022-08-23T14:47:42;3.38;;;2.40;;
44842;SDS011;31884;52.538;13.820;2022-08-23T14:50:09;5.93;;;2.58;;
44842;SDS011;31884;52.538;13.820;2022-08-23T14:52:39;3.97;;;2.22;;
44842;SDS011;31884;52.538;13.820;2022-08-23T14:55:08;5.47;;;2.47;;
44842;SDS011;31884;52.538;13.820;2022-08-23T14:57:34;5.82;;;2.60;;
44842;SDS011;31884;52.538;13.820;2022-08-23T15:00:00;3.10;;;2.50;;
44842;SDS011;31884;52.538;13.820;2022-08-23T15:02:26;3.65;;;2.72;;
44842;SDS011;31884;52.538;13.820;2022-08-23T15:04:53;3.25;;;2.65;;
44842;SDS011;31884;52.538;13.820;2022-08-23T15:07:19;5.18;;;2.75;;
44842;SDS011;31884;52.538;13.820;2022-08-23T15:09:47;4.65;;;2.63;;
44842;SDS011;31884;52.538;13.820;2022-08-23T15:12:13;5.65;;;2.42;;
44842;SDS011;31884;52.538;13.820;2022-08-23T15:14:39;4.55;;;2.35;;
44842;SDS011;31884;52.538;13.820;2022-08-23T15:17:05;4.93;;;2.25;;
44842;SDS011;31884;52.538;13.820;2022-08-23T15:19:31;3.53;;;1.95;;
44842;SDS011;31884;52.538;13.820;2022-08-23T15:21:57;3.85;;;2.10;;
44842;SDS011;31884;52.538;13.820;2022-08-23T15:24:23;3.63;;;2.17;;
44842;SDS011;31884;52.538;13.820;2022-08-23T15:26:49;3.25;;;1.90;;
44842;SDS011;31884;52.538;13.820;2022-08-23T15:29:15;2.95;;;2.00;;
44842;SDS011;31884;52.538;13.820;2022-08-23T15:31:40;5.15;;;2.40;;
44842;SDS011;31884;52.538;13.820;2022-08-23T15:34:06;6.03;;;2.58;;
44842;SDS011;31884;52.538;13.820;2022-08-23T15:36:33;4.30;;;2.13;;
44842;SDS011;31884;52.538;13.820;2022-08-23T15:39:02;3.83;;;2.15;;
44842;SDS011;31884;52.538;13.820;2022-08-23T15:41:28;5.72;;;2.13;;
44842;SDS011;31884;52.538;13.820;2022-08-23T15:43:53;4.07;;;2.25;;
44842;SDS011;31884;52.538;13.820;2022-08-23T15:46:19;6.40;;;2.45;;
44842;SDS011;31884;52.538;13.820;2022-08-23T15:48:52;4.78;;;2.50;;
44842;SDS011;31884;52.538;13.820;2022-08-23T15:51:28;4.00;;;2.30;;
44842;SDS011;31884;52.538;13.820;2022-08-23T15:53:54;3.25;;;2.10;;
44842;SDS011;31884;52.538;13.820;2022-08-23T15:56:22;3.15;;;2.10;;
44842;SDS011;31884;52.538;13.820;2022-08-23T15:58:52;4.65;;;2.20;;
44842;SDS011;31884;52.538;13.820;2022-08-23T16:01:18;4.78;;;2.17;;
44842;SDS011;31884;52.538;13.820;2022-08-23T16:03:47;3.40;;;2.60;;
44842;SDS011;31884;52.538;13.820;2022-08-23T16:06:12;4.07;;;2.17;;
44842;SDS011;31884;52.538;13.820;2022-08-23T16:08:40;3.28;;;2.30;;
44842;SDS011;31884;52.538;13.820;2022-08-23T16:11:08;3.88;;;2.33;;
44842;SDS011;31884;52.538;13.820;2022-08-23T16:13:37;2.30;;;1.83;;